Gaschem Jade — ELSU9 — position and weather

sailwx.info

Track history (hours):
 
Tides and Currents Weather Stations Pressure Air Temp Water Temp Dewpoint Dewpoint Depression Visibility Wind Speed Wind Dir Waves Ship Positions

Gaschem Jade

Last reported at 2015-May-04 02:24 UTC. Time now 2015-May-04 04:59 UTC.
Position N 35°21' W 006°35'.

Length 113.2 m; beam 15.9 m; draft 6.1 m.

Type: Ship. MMSI: 636090168.

Date/timePositionNaut miles runAvg speedWind from/ knotsBaromVisibWave heightAir tempDewpointWater temp
2015-May-04 02:24N 35°21' W 006°35'1011.9
2015-May-04 01:33N 35°13' W 006°43'1311.8
2015-May-04 00:29N 35°04' W 006°53'3611.6
2015-May-03 21:22N 34°37' W 007°22'1011.9
2015-May-03 20:33N 34°29' W 007°30'1211.8
2015-May-03 19:33N 34°20' W 007°39'1211.1
2015-May-03 18:28N 34°11' W 007°49'1010.8
2015-May-03 17:33N 34°04' W 007°57'1110.8
2015-May-03 16:33N 33°56' W 008°05'1110.7
2015-May-03 15:33N 33°48' W 008°14'1210.7
2015-May-03 14:24N 33°38' W 008°23'2211.1
2015-May-03 12:27N 33°22' W 008°40'1010.7
2015-May-03 11:30N 33°12' W 008°42'4 0.1
2015-May-02 00:32N 33°08' W 008°42'237 6.2
2015-Apr-30 10:21N 36°00' W 005°24'7 9.4
2015-Apr-30 09:33N 36°02' W 005°15'19710.7
2015-Apr-29 15:08N 36°11' W 001°11'  
2015-Apr-26 10:33N 35°59' W 005°19'  
Track history (hours):
 
Tides and Currents Weather Stations Pressure Air Temp Water Temp Dewpoint Dewpoint Depression Visibility Wind Speed Wind Dir Waves Ship Positions

Gaschem Jade

Last reported at 2015-May-04 02:24 UTC. Time now 2015-May-04 04:59 UTC.
Position N 35°21' W 006°35'.

Length 113.2 m; beam 15.9 m; draft 6.1 m.

Type: Ship. MMSI: 636090168.

Date/timePositionNaut miles runAvg speedWind from/ knotsBaromVisibWave heightAir tempDewpointWater temp
2015-May-04 02:24N 35°21' W 006°35'1011.9
2015-May-04 01:33N 35°13' W 006°43'1311.8
2015-May-04 00:29N 35°04' W 006°53'3611.6
2015-May-03 21:22N 34°37' W 007°22'1011.9
2015-May-03 20:33N 34°29' W 007°30'1211.8
2015-May-03 19:33N 34°20' W 007°39'1211.1
2015-May-03 18:28N 34°11' W 007°49'1010.8
2015-May-03 17:33N 34°04' W 007°57'1110.8
2015-May-03 16:33N 33°56' W 008°05'1110.7
2015-May-03 15:33N 33°48' W 008°14'1210.7
2015-May-03 14:24N 33°38' W 008°23'2211.1
2015-May-03 12:27N 33°22' W 008°40'1010.7
2015-May-03 11:30N 33°12' W 008°42'4 0.1
2015-May-02 00:32N 33°08' W 008°42'237 6.2
2015-Apr-30 10:21N 36°00' W 005°24'7 9.4
2015-Apr-30 09:33N 36°02' W 005°15'19710.7
2015-Apr-29 15:08N 36°11' W 001°11'  
2015-Apr-26 10:33N 35°59' W 005°19'  

Dump ship's entire track history